createdAt,value
2019-01-27T00:03:41.849Z,98639.55
2019-01-27T00:08:45.770Z,98620.95
2019-01-27T00:13:49.556Z,98619.98
2019-01-27T00:18:59.109Z,98608.25
2019-01-27T00:24:02.972Z,98608.75
2019-01-27T00:29:06.797Z,98598.86
2019-01-27T00:34:10.626Z,98590.61
2019-01-27T00:39:14.544Z,98587.80
2019-01-27T00:44:18.373Z,98582.06
2019-01-27T00:49:22.242Z,98568.35
2019-01-27T00:54:29.006Z,98558.77
2019-01-27T00:59:32.851Z,98543.88
2019-01-27T01:04:36.813Z,98516.69
2019-01-27T01:09:40.724Z,98528.96
2019-01-27T01:14:44.569Z,98523.42
2019-01-27T01:19:48.462Z,98518.90
2019-01-27T01:24:52.374Z,98513.88
2019-01-27T01:29:58.384Z,98513.88
2019-01-27T01:35:02.316Z,98490.41
2019-01-27T01:40:08.840Z,98478.84
2019-01-27T01:45:42.403Z,98470.63
2019-01-27T01:50:46.233Z,98435.91
2019-01-27T01:55:50.050Z,98442.77
2019-01-27T02:00:54.041Z,98421.85
2019-01-27T02:05:57.835Z,98421.85
2019-01-27T02:11:01.674Z,98415.65
2019-01-27T02:16:09.343Z,98396.34
2019-01-27T02:21:13.200Z,98396.34
2019-01-27T02:26:17.226Z,98373.38
2019-01-27T02:31:21.014Z,98375.23
2019-01-27T02:36:24.827Z,98364.83
2019-01-27T02:41:28.634Z,98348.41
2019-01-27T02:46:32.577Z,98325.78
2019-01-27T02:51:36.371Z,98318.75
2019-01-27T02:56:40.174Z,98318.75
2019-01-27T03:01:43.995Z,98282.88
2019-01-27T03:06:53.549Z,98281.05
2019-01-27T03:11:57.445Z,98268.14
2019-01-27T03:17:01.235Z,98251.70
2019-01-27T03:22:05.086Z,98236.78
2019-01-27T03:27:08.945Z,98240.13
2019-01-27T03:32:12.950Z,98238.13
2019-01-27T03:37:16.737Z,98218.52
2019-01-27T03:42:20.658Z,98218.52
2019-01-27T03:47:24.453Z,98198.39
2019-01-27T03:52:28.320Z,98213.68
2019-01-27T03:57:32.167Z,98206.28
2019-01-27T04:02:36.169Z,98197.25
2019-01-27T04:07:40.049Z,98189.70
2019-01-27T04:12:43.880Z,98189.70
2019-01-27T04:17:47.705Z,98154.68
2019-01-27T04:22:51.567Z,98168.10
2019-01-27T04:27:55.456Z,98156.19
2019-01-27T04:32:59.242Z,98154.02
2019-01-27T04:38:03.042Z,98154.02
2019-01-27T04:43:06.872Z,98144.30
2019-01-27T04:48:10.681Z,98122.53
2019-01-27T04:53:14.477Z,98108.10
2019-01-27T04:58:18.260Z,98108.10
2019-01-27T05:03:35.300Z,98087.16
2019-01-27T05:08:39.195Z,98077.78
2019-01-27T05:13:43.058Z,98069.92
2019-01-27T05:18:46.858Z,98053.66
2019-01-27T05:23:50.640Z,98053.66
2019-01-27T05:28:54.401Z,98042.92
2019-01-27T05:33:58.310Z,98034.56
2019-01-27T05:39:02.097Z,98034.56
2019-01-27T05:44:05.959Z,98037.42
2019-01-27T05:49:09.741Z,98024.67
2019-01-27T05:54:13.609Z,98024.67
2019-01-27T05:59:17.396Z,97994.53
2019-01-27T06:04:22.130Z,97994.53
2019-01-27T06:09:25.998Z,97991.67
2019-01-27T06:14:29.778Z,97978.44
2019-01-27T06:19:33.566Z,97982.28
2019-01-27T06:24:37.403Z,97969.72
2019-01-27T06:29:41.291Z,97953.95
2019-01-27T06:34:45.076Z,97948.59
2019-01-27T06:39:48.852Z,97952.80
2019-01-27T06:45:54.366Z,97952.80
2019-01-27T06:50:58.121Z,97929.50
2019-01-27T06:56:01.937Z,97916.79
2019-01-27T07:01:11.051Z,97914.58
2019-01-27T07:06:36.777Z,97914.58
2019-01-27T07:11:58.542Z,97900.08
2019-01-27T07:17:10.053Z,97899.91
2019-01-27T07:22:32.838Z,97902.11
2019-01-27T07:27:44.328Z,97894.57
2019-01-27T07:32:59.879Z,97897.61
2019-01-27T07:38:27.159Z,97892.61
2019-01-27T07:43:53.025Z,97892.61
2019-01-27T07:49:28.036Z,97892.94
2019-01-27T07:55:12.846Z,97887.75
2019-01-27T08:00:35.904Z,97881.05
2019-01-27T08:05:57.417Z,97881.05
2019-01-27T08:11:26.083Z,97887.38
2019-01-27T08:16:54.141Z,97883.02
2019-01-27T08:22:15.577Z,97883.02
2019-01-27T08:27:37.078Z,97866.63
2019-01-27T08:32:48.235Z,97861.85
2019-01-27T08:38:14.144Z,97861.85
2019-01-27T08:43:46.190Z,97841.84
2019-01-27T08:48:49.962Z,97825.79
2019-01-27T08:53:53.795Z,97826.44
2019-01-27T08:58:57.660Z,97818.77
2019-01-27T09:04:07.892Z,97809.89
2019-01-27T09:09:19.721Z,97818.49
2019-01-27T09:14:40.026Z,97812.44
2019-01-27T09:20:01.527Z,97812.44
2019-01-27T09:25:26.544Z,97806.98
2019-01-27T09:30:48.725Z,97793.40
2019-01-27T09:36:10.236Z,97791.64
2019-01-27T09:41:22.408Z,97802.41
2019-01-27T09:46:44.238Z,97811.55
2019-01-27T09:52:01.180Z,97811.55
2019-01-27T09:57:10.318Z,97812.75
2019-01-27T10:02:35.121Z,97807.67
2019-01-27T10:07:53.020Z,97792.42
2019-01-27T10:13:09.770Z,97792.42
2019-01-27T10:18:47.883Z,97791.13
2019-01-27T10:24:22.849Z,97779.39
2019-01-27T10:29:44.591Z,97781.58
2019-01-27T10:35:13.653Z,97739.31
2019-01-27T10:40:39.797Z,97739.31
2019-01-27T10:46:05.052Z,97756.71
2019-01-27T10:51:23.761Z,97734.53
2019-01-27T10:56:43.459Z,97740.98
2019-01-27T11:02:14.989Z,97709.72
2019-01-27T11:07:47.075Z,97709.72
2019-01-27T11:12:59.304Z,97714.80
2019-01-27T11:18:37.479Z,97712.77
2019-01-27T11:24:06.046Z,97691.25
2019-01-27T11:29:25.271Z,97691.25
2019-01-27T11:34:53.947Z,97677.36
2019-01-27T11:40:16.818Z,97664.12
2019-01-27T11:45:28.405Z,97664.93
2019-01-27T11:50:38.297Z,97669.70
2019-01-27T11:55:42.081Z,97648.78
2019-01-27T12:00:49.570Z,97644.49
2019-01-27T12:05:53.603Z,97638.64
2019-01-27T12:10:57.837Z,97650.69
2019-01-27T12:16:01.763Z,97650.69
2019-01-27T12:21:05.743Z,97646.52
2019-01-27T12:26:10.301Z,97639.63
2019-01-27T12:31:15.061Z,97630.81
2019-01-27T12:36:19.301Z,97630.81
2019-01-27T12:41:23.944Z,97612.58
2019-01-27T12:46:28.587Z,97609.39
2019-01-27T12:51:33.098Z,97607.23
2019-01-27T12:56:37.154Z,97589.48
2019-01-27T13:01:41.545Z,97589.01
2019-01-27T13:06:46.156Z,97562.91
2019-01-27T13:11:50.808Z,97576.14
2019-01-27T13:16:54.879Z,97565.92
2019-01-27T13:21:59.073Z,97561.80
2019-01-27T13:27:03.386Z,97551.48
2019-01-27T13:32:08.227Z,97551.48
2019-01-27T13:37:12.966Z,97552.24
2019-01-27T13:42:17.508Z,97552.24
2019-01-27T13:47:21.952Z,97526.91
2019-01-27T13:52:26.096Z,97514.12
2019-01-27T13:57:30.041Z,97508.78
2019-01-27T14:02:34.374Z,97508.78
2019-01-27T14:07:38.562Z,97510.50
2019-01-27T14:12:43.278Z,97501.95
2019-01-27T14:17:47.797Z,97501.95
2019-01-27T14:22:51.964Z,97501.70
2019-01-27T14:27:56.736Z,97500.63
2019-01-27T14:33:00.850Z,97494.69
2019-01-27T14:38:08.366Z,97482.92
2019-01-27T14:43:19.743Z,97498.16
2019-01-27T14:48:24.106Z,97498.16
2019-01-27T14:53:28.629Z,97492.78
2019-01-27T14:58:33.229Z,97494.25
2019-01-27T15:03:37.937Z,97491.02
2019-01-27T15:08:45.883Z,97483.30
2019-01-27T15:13:49.089Z,97489.48
2019-01-27T15:18:54.095Z,97479.03
2019-01-27T15:23:58.491Z,97491.45
2019-01-27T15:29:03.090Z,97486.09
2019-01-27T15:34:08.608Z,97497.45
2019-01-27T15:39:13.089Z,97498.12
2019-01-27T15:44:17.845Z,97498.12
2019-01-27T15:49:22.476Z,97487.95
2019-01-27T15:54:27.223Z,97495.09
2019-01-27T15:59:31.756Z,97501.47
2019-01-27T16:04:36.201Z,97505.19
2019-01-27T16:09:40.446Z,97494.63
2019-01-27T16:14:44.543Z,97502.00
2019-01-27T16:19:48.855Z,97501.33
2019-01-27T16:24:53.415Z,97498.47
2019-01-27T16:30:12.569Z,97490.45
2019-01-27T16:35:20.137Z,97472.33
2019-01-27T16:40:25.097Z,97472.33
2019-01-27T16:45:30.281Z,97486.91
2019-01-27T16:50:34.785Z,97498.68
2019-01-27T16:55:39.150Z,97496.45
2019-01-27T17:00:54.713Z,97494.25
2019-01-27T17:05:59.154Z,97476.63
2019-01-27T17:11:03.975Z,97488.10
2019-01-27T17:16:08.704Z,97484.56
2019-01-27T17:21:13.113Z,97484.56
2019-01-27T17:26:17.885Z,97474.55
2019-01-27T17:31:22.932Z,97472.53
2019-01-27T17:36:28.831Z,97472.53
2019-01-27T17:41:34.164Z,97470.34
2019-01-27T17:46:38.736Z,97472.77
2019-01-27T17:51:43.174Z,97466.48
2019-01-27T17:56:54.184Z,97466.05
2019-01-27T18:02:20.370Z,97466.05
2019-01-27T18:07:46.278Z,97469.20
2019-01-27T18:13:18.331Z,97475.48
2019-01-27T18:18:23.091Z,97475.48
2019-01-27T18:23:28.493Z,97481.26
2019-01-27T18:28:32.993Z,97487.13
2019-01-27T18:33:38.231Z,97483.95
2019-01-27T18:38:43.961Z,97486.41
2019-01-27T18:43:49.575Z,97498.18
2019-01-27T18:49:03.914Z,97503.48
2019-01-27T18:54:20.281Z,97501.12
2019-01-27T18:59:40.635Z,97501.12
2019-01-27T19:05:03.688Z,97496.95
2019-01-27T19:10:22.259Z,97492.67
2019-01-27T19:16:03.454Z,97490.81
2019-01-27T19:21:18.650Z,97493.37
2019-01-27T19:26:32.411Z,97511.64
2019-01-27T19:32:04.685Z,97512.44
2019-01-27T19:37:39.849Z,97513.95
2019-01-27T19:43:09.181Z,97513.95
2019-01-27T19:48:35.436Z,97513.27
2019-01-27T19:53:59.745Z,97517.67
2019-01-27T19:59:23.238Z,97520.16
2019-01-27T20:04:58.385Z,97520.16
2019-01-27T20:10:33.850Z,97518.98
2019-01-27T20:15:55.252Z,97524.03
2019-01-27T20:21:10.585Z,97534.31
2019-01-27T20:26:29.088Z,97528.05
2019-01-27T20:31:50.648Z,97532.07
2019-01-27T20:37:11.389Z,97520.89
2019-01-27T20:42:34.993Z,97522.27
2019-01-27T20:48:01.000Z,97522.27
2019-01-27T20:53:32.902Z,97527.01
2019-01-27T20:59:13.189Z,97525.39
2019-01-27T21:04:45.378Z,97521.98
2019-01-27T21:10:27.088Z,97521.98
2019-01-27T21:15:52.731Z,97520.12
2019-01-27T21:20:58.198Z,97529.44
2019-01-27T21:26:03.303Z,97526.66
2019-01-27T21:31:08.709Z,97528.91
2019-01-27T21:36:13.776Z,97525.11
2019-01-27T21:41:17.879Z,97521.40
2019-01-27T21:46:21.915Z,97532.32
2019-01-27T21:51:26.129Z,97530.86
2019-01-27T21:56:29.981Z,97527.34
2019-01-27T22:01:33.968Z,97527.34
2019-01-27T22:06:38.179Z,97524.18
2019-01-27T22:11:42.134Z,97521.69
2019-01-27T22:16:45.921Z,97521.69
2019-01-27T22:21:49.761Z,97519.84
2019-01-27T22:26:53.564Z,97514.41
2019-01-27T22:31:57.336Z,97514.41
2019-01-27T22:37:01.126Z,97523.32
2019-01-27T22:42:04.923Z,97523.32
2019-01-27T22:47:08.715Z,97533.03
2019-01-27T22:52:12.507Z,97536.47
2019-01-27T22:57:16.287Z,97537.34
2019-01-27T23:02:20.139Z,97541.08
2019-01-27T23:07:23.944Z,97541.08
2019-01-27T23:12:27.748Z,97544.23
2019-01-27T23:17:31.548Z,97547.52
2019-01-27T23:22:35.360Z,97556.10
2019-01-27T23:27:39.173Z,97559.59
2019-01-27T23:32:43.041Z,97565.56
2019-01-27T23:37:46.797Z,97565.56
2019-01-27T23:42:50.578Z,97565.08
2019-01-27T23:47:54.458Z,97565.08
2019-01-27T23:52:58.250Z,97576.70
2019-01-27T23:58:02.040Z,97591.13
